Aplicació Alertes

Dades de l'estació automàtica Lladurs

?
?
Resum diari 22:30 TU
Dades diàries de l'estació meteorològica
Temperatura mitjana 1.9 °C
Temperatura màxima 6.2 °C 14:11 TU
Temperatura mínima -3.1 °C 7:45 TU
Humitat relativa mitjana 56%
Precipitació acumulada 0.0 mm
Ratxa màxima del vent (2 m) 16.9 km/h - 325º 22:56 TU
Irradiació solar global 8.6 MJ/m2

El tram horari està expressat en Temps Universal (TU). Cal sumar una hora en horari d'hivern i dues en horari d'estiu per passar a l'hora oficial.

Lladurs

Metadades estació meteorol´gica
Municipi Lladurs
Comarca Solsonès
Altitud 785 m
Data alta 05.05.1998
Estat actual Operativa
Dades de període
Període
TU
TM
°C
TX
°C
TN
°C
HRM
%
PPT
mm
VVM (2 m)
km/h
DVM (2 m)
graus
VVX (2 m)
km/h
RS
W/m2
00:00 - 00:30 2.2 2.6 1.8 42 0.0 3.6 270 13.7 0
00:30 - 01:00 2.6 2.7 2.4 40 0.0 2.5 311 11.2 0
01:00 - 01:30 2.7 2.9 2.1 40 0.0 3.2 334 10.8 0
01:30 - 02:00 2.1 2.5 1.5 41 0.0 1.8 323 7.2 0
02:00 - 02:30 1.2 2.5 0.1 44 0.0 1.4 349 5.4 0
02:30 - 03:00 0.2 0.4 -0.3 47 0.0 1.8 347 5.0 0
03:00 - 03:30 -0.4 -0.2 -0.6 48 0.0 1.8 10 4.0 0
03:30 - 04:00 -0.8 -0.5 -1.2 50 0.0 2.2 22 4.3 0
04:00 - 04:30 -1.2 -1.0 -1.3 52 0.0 1.4 35 4.7 0
04:30 - 05:00 -0.8 0.0 -1.3 48 0.0 1.4 13 5.4 0
05:00 - 05:30 -0.3 0.1 -0.9 42 0.0 1.8 316 7.6 0
05:30 - 06:00 0.9 1.2 0.3 37 0.0 1.8 284 7.9 0
06:00 - 06:30 1.4 1.8 1.0 36 0.0 2.2 302 11.2 0
06:30 - 07:00 1.5 1.8 1.3 36 0.0 2.2 311 6.1 0
07:00 - 07:30 1.2 1.6 0.7 38 0.0 2.5 282 7.9 5
07:30 - 08:00 -2.4 0.7 -3.1 61 0.0 1.4 77 7.6 45
08:00 - 08:30 -1.4 -0.2 -2.3 70 0.0 1.1 316 5.8 131
08:30 - 09:00 0.2 1.3 -1.2 63 0.0 1.4 132 5.0 207
09:00 - 09:30 0.8 1.2 0.3 59 0.0 2.2 205 5.0 276
09:30 - 10:00 1.5 1.9 1.1 63 0.0 2.2 171 6.5 339
10:00 - 10:30 1.8 2.3 1.3 68 0.0 2.5 168 7.6 294
10:30 - 11:00 2.4 3.6 1.5 67 0.0 4.0 137 11.2 369
11:00 - 11:30 3.7 4.2 2.8 59 0.0 4.7 158 10.8 425
11:30 - 12:00 4.2 4.8 3.8 55 0.0 4.0 166 11.9 450
12:00 - 12:30 5.1 5.5 4.6 51 0.0 4.3 177 10.8 410
12:30 - 13:00 4.1 5.0 3.4 53 0.0 4.7 210 11.5 284
13:00 - 13:30 4.8 5.1 4.3 53 0.0 5.8 213 13.0 371
13:30 - 14:00 5.2 5.6 4.8 53 0.0 5.8 225 11.9 394
14:00 - 14:30 5.8 6.2 5.2 54 0.0 3.6 177 9.0 323
14:30 - 15:00 5.6 5.8 5.3 56 0.0 4.0 186 11.9 245
15:00 - 15:30 5.3 5.6 4.7 57 0.0 3.2 191 9.0 150
15:30 - 16:00 4.3 5.0 3.8 60 0.0 2.9 194 7.9 37
16:00 - 16:30 2.9 3.8 1.8 66 0.0 1.8 187 6.8 11
16:30 - 17:00 1.7 1.9 1.1 71 0.0 0.7 314 2.9 1
17:00 - 17:30 0.8 1.0 0.6 75 0.0 1.8 7 5.4 0
17:30 - 18:00 0.2 0.7 -0.3 78 0.0 1.4 356 6.8 0
18:00 - 18:30 -0.1 0.3 -0.3 79 0.0 2.5 26 6.5 0
18:30 - 19:00 -0.1 0.1 -0.5 79 0.0 1.4 354 6.8 0
19:00 - 19:30 0.5 1.2 -0.1 74 0.0 1.8 356 5.8 0
19:30 - 20:00 1.6 2.5 0.7 64 0.0 2.9 332 6.5 0
20:00 - 20:30 2.5 2.7 2.2 58 0.0 2.5 324 5.4 0
20:30 - 21:00 2.4 2.8 2.1 58 0.0 2.5 326 7.6 0
21:00 - 21:30 2.5 3.1 2.1 57 0.0 2.2 330 5.8 0
21:30 - 22:00 2.7 2.9 2.5 57 0.0 2.5 328 5.4 0
22:00 - 22:30 2.9 3.5 2.4 57 0.0 3.6 336 6.8 0
22:30 - 23:00 3.8 4.7 2.7 52 0.0 7.6 327 16.9 0
23:00 - 23:30 (s/d) (s/d) (s/d) (s/d) (s/d) (s/d) (s/d) (s/d) (s/d)

Les dades en taronja només han passat un control de qualitat automàtic. Resta pendent la seva validació definitiva.